sensor_id;sensor_type;location;lat;lon;timestamp;pressure;altitude;pressure_sealevel;temperature;humidity
7407;BME280;3745;56.964;24.128;2023-05-25T00:01:42;101563.41;;;19.17;100.00
7407;BME280;3745;56.964;24.128;2023-05-25T00:04:13;101532.78;;;18.99;100.00
7407;BME280;3745;56.964;24.128;2023-05-25T00:06:41;101523.56;;;18.82;100.00
7407;BME280;3745;56.964;24.128;2023-05-25T00:09:09;101569.53;;;19.04;100.00
7407;BME280;3745;56.964;24.128;2023-05-25T00:11:35;101572.97;;;19.01;100.00
7407;BME280;3745;56.964;24.128;2023-05-25T00:14:01;101567.84;;;19.01;100.00
7407;BME280;3745;56.964;24.128;2023-05-25T00:16:26;101536.34;;;18.88;100.00
7407;BME280;3745;56.964;24.128;2023-05-25T00:18:52;101570.44;;;19.00;100.00
7407;BME280;3745;56.964;24.128;2023-05-25T00:21:22;101554.25;;;18.91;100.00
7407;BME280;3745;56.964;24.128;2023-05-25T00:23:48;101561.97;;;18.91;100.00
7407;BME280;3745;56.964;24.128;2023-05-25T00:26:14;101567.88;;;19.00;100.00
7407;BME280;3745;56.964;24.128;2023-05-25T00:28:39;101539.78;;;18.83;100.00
7407;BME280;3745;56.964;24.128;2023-05-25T00:31:05;101522.81;;;18.68;100.00
7407;BME280;3745;56.964;24.128;2023-05-25T00:33:31;101553.47;;;18.83;100.00
7407;BME280;3745;56.964;24.128;2023-05-25T00:35:56;101522.81;;;18.68;100.00
7407;BME280;3745;56.964;24.128;2023-05-25T00:38:23;101562.91;;;18.78;100.00
7407;BME280;3745;56.964;24.128;2023-05-25T00:40:53;101564.56;;;18.85;100.00
7407;BME280;3745;56.964;24.128;2023-05-25T00:43:20;101510.09;;;18.56;100.00
7407;BME280;3745;56.964;24.128;2023-05-25T00:45:46;101562.09;;;18.70;100.00
7407;BME280;3745;56.964;24.128;2023-05-25T00:48:12;101562.13;;;18.73;100.00
7407;BME280;3745;56.964;24.128;2023-05-25T00:50:40;101567.28;;;18.64;100.00
7407;BME280;3745;56.964;24.128;2023-05-25T00:53:09;101560.47;;;18.63;100.00
7407;BME280;3745;56.964;24.128;2023-05-25T00:55:38;101564.72;;;18.64;100.00
7407;BME280;3745;56.964;24.128;2023-05-25T00:58:06;101505.13;;;18.30;100.00
7407;BME280;3745;56.964;24.128;2023-05-25T01:00:33;101566.44;;;18.67;100.00
7407;BME280;3745;56.964;24.128;2023-05-25T01:03:07;101572.41;;;18.64;100.00
7407;BME280;3745;56.964;24.128;2023-05-25T01:05:37;101574.09;;;18.68;100.00
7407;BME280;3745;56.964;24.128;2023-05-25T01:08:08;101553.59;;;18.65;100.00
7407;BME280;3745;56.964;24.128;2023-05-25T01:10:37;101534.94;;;18.45;100.00
7407;BME280;3745;56.964;24.128;2023-05-25T01:13:05;101570.75;;;18.60;100.00
7407;BME280;3745;56.964;24.128;2023-05-25T01:15:32;101560.53;;;18.54;100.00
7407;BME280;3745;56.964;24.128;2023-05-25T01:17:57;101568.22;;;18.56;100.00
7407;BME280;3745;56.964;24.128;2023-05-25T01:20:25;101552.00;;;18.46;100.00
7407;BME280;3745;56.964;24.128;2023-05-25T01:23:09;101560.50;;;18.60;100.00
7407;BME280;3745;56.964;24.128;2023-05-25T01:25:40;101559.59;;;18.66;100.00
7407;BME280;3745;56.964;24.128;2023-05-25T01:28:20;101538.31;;;18.53;100.00
7407;BME280;3745;56.964;24.128;2023-05-25T01:30:48;101544.31;;;18.46;100.00
7407;BME280;3745;56.964;24.128;2023-05-25T01:33:16;101568.19;;;18.60;100.00
7407;BME280;3745;56.964;24.128;2023-05-25T01:35:43;101565.59;;;18.63;100.00
7407;BME280;3745;56.964;24.128;2023-05-25T01:38:09;101527.25;;;18.43;100.00
7407;BME280;3745;56.964;24.128;2023-05-25T01:40:35;101565.59;;;18.63;100.00
7407;BME280;3745;56.964;24.128;2023-05-25T01:43:01;101561.41;;;18.52;100.00
7407;BME280;3745;56.964;24.128;2023-05-25T01:45:27;101558.81;;;18.53;100.00
7407;BME280;3745;56.964;24.128;2023-05-25T01:48:27;101559.59;;;18.61;100.00
7407;BME280;3745;56.964;24.128;2023-05-25T01:51:01;101559.63;;;18.60;100.00
7407;BME280;3745;56.964;24.128;2023-05-25T01:53:33;101562.25;;;18.49;100.00
7407;BME280;3745;56.964;24.128;2023-05-25T01:56:10;101560.63;;;18.36;100.00
7407;BME280;3745;56.964;24.128;2023-05-25T01:58:41;101516.38;;;18.10;100.00
7407;BME280;3745;56.964;24.128;2023-05-25T02:01:11;101559.78;;;18.35;100.00
7407;BME280;3745;56.964;24.128;2023-05-25T02:03:40;101561.50;;;18.30;100.00
7407;BME280;3745;56.964;24.128;2023-05-25T02:06:07;101552.16;;;18.22;100.00
7407;BME280;3745;56.964;24.128;2023-05-25T02:08:33;101556.50;;;18.14;100.00
7407;BME280;3745;56.964;24.128;2023-05-25T02:10:59;101559.03;;;18.17;100.00
7407;BME280;3745;56.964;24.128;2023-05-25T02:13:25;101530.94;;;18.00;100.00
7407;BME280;3745;56.964;24.128;2023-05-25T02:15:51;101564.13;;;18.23;100.00
7407;BME280;3745;56.964;24.128;2023-05-25T02:18:17;101569.28;;;18.17;100.00
7407;BME280;3745;56.964;24.128;2023-05-25T02:20:44;101565.88;;;18.16;100.00
7407;BME280;3745;56.964;24.128;2023-05-25T02:23:10;101567.59;;;18.13;100.00
7407;BME280;3745;56.964;24.128;2023-05-25T02:25:35;101559.97;;;18.02;100.00
7407;BME280;3745;56.964;24.128;2023-05-25T02:28:02;101571.91;;;18.03;100.00
7407;BME280;3745;56.964;24.128;2023-05-25T02:30:27;101569.31;;;18.11;100.00
7407;BME280;3745;56.964;24.128;2023-05-25T02:32:53;101557.38;;;18.04;100.00
7407;BME280;3745;56.964;24.128;2023-05-25T02:35:19;101545.44;;;18.00;100.00
7407;BME280;3745;56.964;24.128;2023-05-25T02:37:44;101571.03;;;18.10;100.00
7407;BME280;3745;56.964;24.128;2023-05-25T02:40:10;101562.44;;;18.19;100.00
7407;BME280;3745;56.964;24.128;2023-05-25T02:42:36;101563.31;;;18.18;100.00
7407;BME280;3745;56.964;24.128;2023-05-25T02:45:03;101565.06;;;18.11;100.00
7407;BME280;3745;56.964;24.128;2023-05-25T02:47:30;101558.19;;;18.15;100.00
7407;BME280;3745;56.964;24.128;2023-05-25T02:49:56;101502.88;;;17.83;100.00
7407;BME280;3745;56.964;24.128;2023-05-25T02:52:21;101541.19;;;18.00;100.00
7407;BME280;3745;56.964;24.128;2023-05-25T02:54:49;101564.16;;;18.17;100.00
7407;BME280;3745;56.964;24.128;2023-05-25T02:57:15;101565.88;;;18.15;100.00
7407;BME280;3745;56.964;24.128;2023-05-25T02:59:41;101564.22;;;18.08;100.00
7407;BME280;3745;56.964;24.128;2023-05-25T03:02:06;101554.00;;;18.02;100.00
7407;BME280;3745;56.964;24.128;2023-05-25T03:04:32;101568.44;;;18.13;100.00
7407;BME280;3745;56.964;24.128;2023-05-25T03:07:01;101560.84;;;17.94;100.00
7407;BME280;3745;56.964;24.128;2023-05-25T03:09:27;101568.56;;;17.92;100.00
7407;BME280;3745;56.964;24.128;2023-05-25T03:11:52;101535.34;;;17.69;100.00
7407;BME280;3745;56.964;24.128;2023-05-25T03:14:18;101547.25;;;17.79;100.00
7407;BME280;3745;56.964;24.128;2023-05-25T03:16:44;101569.41;;;17.93;100.00
7407;BME280;3745;56.964;24.128;2023-05-25T03:19:09;101557.47;;;17.88;100.00
7407;BME280;3745;56.964;24.128;2023-05-25T03:21:37;101574.47;;;18.08;100.00
7407;BME280;3745;56.964;24.128;2023-05-25T03:24:03;101569.34;;;18.05;100.00
7407;BME280;3745;56.964;24.128;2023-05-25T03:26:28;101576.16;;;18.06;100.00
7407;BME280;3745;56.964;24.128;2023-05-25T03:28:55;101553.13;;;18.03;100.00
7407;BME280;3745;56.964;24.128;2023-05-25T03:31:21;101577.00;;;18.11;100.00
7407;BME280;3745;56.964;24.128;2023-05-25T03:33:47;101550.59;;;17.97;100.00
7407;BME280;3745;56.964;24.128;2023-05-25T03:36:13;101554.00;;;17.99;100.00
7407;BME280;3745;56.964;24.128;2023-05-25T03:38:42;101549.78;;;17.90;100.00
7407;BME280;3745;56.964;24.128;2023-05-25T03:41:08;101567.63;;;18.04;100.00
7407;BME280;3745;56.964;24.128;2023-05-25T03:43:33;101571.03;;;18.09;100.00
7407;BME280;3745;56.964;24.128;2023-05-25T03:45:59;101572.72;;;18.10;100.00
7407;BME280;3745;56.964;24.128;2023-05-25T03:48:25;101572.69;;;18.19;100.00
7407;BME280;3745;56.964;24.128;2023-05-25T03:50:51;101576.09;;;18.24;100.00
7407;BME280;3745;56.964;24.128;2023-05-25T03:53:16;101570.09;;;18.23;100.00
7407;BME280;3745;56.964;24.128;2023-05-25T03:55:42;101523.25;;;18.02;100.00
7407;BME280;3745;56.964;24.128;2023-05-25T03:58:08;101577.66;;;18.49;100.00
7407;BME280;3745;56.964;24.128;2023-05-25T04:00:36;101567.38;;;18.52;100.00
7407;BME280;3745;56.964;24.128;2023-05-25T04:03:02;101567.25;;;18.67;100.00
7407;BME280;3745;56.964;24.128;2023-05-25T04:05:28;101564.63;;;18.79;100.00
7407;BME280;3745;56.964;24.128;2023-05-25T04:07:54;101563.59;;;18.95;100.00
7407;BME280;3745;56.964;24.128;2023-05-25T04:10:20;101536.38;;;18.82;100.00
7407;BME280;3745;56.964;24.128;2023-05-25T04:12:46;101565.19;;;19.12;100.00
7407;BME280;3745;56.964;24.128;2023-05-25T04:15:12;101556.69;;;19.07;100.00
7407;BME280;3745;56.964;24.128;2023-05-25T04:17:39;101534.41;;;19.09;100.00
7407;BME280;3745;56.964;24.128;2023-05-25T04:20:08;101563.38;;;19.20;100.00
7407;BME280;3745;56.964;24.128;2023-05-25T04:22:33;101566.81;;;19.22;100.00
7407;BME280;3745;56.964;24.128;2023-05-25T04:25:05;101532.63;;;19.14;100.00
7407;BME280;3745;56.964;24.128;2023-05-25T04:27:31;101571.75;;;19.43;100.00
7407;BME280;3745;56.964;24.128;2023-05-25T04:29:57;101524.81;;;19.27;100.00
7407;BME280;3745;56.964;24.128;2023-05-25T04:32:23;101564.72;;;19.57;100.00
7407;BME280;3745;56.964;24.128;2023-05-25T04:34:49;101566.38;;;19.64;100.00
7407;BME280;3745;56.964;24.128;2023-05-25T04:37:15;101539.22;;;19.42;100.00
7407;BME280;3745;56.964;24.128;2023-05-25T04:39:41;101535.75;;;19.46;100.00
7407;BME280;3745;56.964;24.128;2023-05-25T04:42:07;101547.41;;;19.74;100.00
7407;BME280;3745;56.964;24.128;2023-05-25T04:44:32;101565.31;;;19.80;100.00
7407;BME280;3745;56.964;24.128;2023-05-25T04:46:58;101565.22;;;19.88;100.00
7407;BME280;3745;56.964;24.128;2023-05-25T04:49:25;101548.78;;;19.99;100.00
7407;BME280;3745;56.964;24.128;2023-05-25T04:51:52;101552.03;;;20.14;100.00
7407;BME280;3745;56.964;24.128;2023-05-25T04:54:18;101546.75;;;20.23;100.00
7407;BME280;3745;56.964;24.128;2023-05-25T04:56:43;101558.22;;;20.60;100.00
7407;BME280;3745;56.964;24.128;2023-05-25T04:59:09;101524.31;;;20.34;100.00
7407;BME280;3745;56.964;24.128;2023-05-25T05:01:35;101563.66;;;20.42;100.00
7407;BME280;3745;56.964;24.128;2023-05-25T05:04:06;101556.66;;;20.50;100.00
7407;BME280;3745;56.964;24.128;2023-05-25T05:06:33;101560.06;;;20.52;100.00
7407;BME280;3745;56.964;24.128;2023-05-25T05:08:59;101559.13;;;20.58;100.00
7407;BME280;3745;56.964;24.128;2023-05-25T05:11:27;101554.91;;;20.52;100.00
7407;BME280;3745;56.964;24.128;2023-05-25T05:13:53;101535.19;;;20.54;100.00
7407;BME280;3745;56.964;24.128;2023-05-25T05:16:19;101530.84;;;20.56;100.00
7407;BME280;3745;56.964;24.128;2023-05-25T05:18:45;101556.22;;;20.77;100.00
7407;BME280;3745;56.964;24.128;2023-05-25T05:21:11;101561.00;;;20.98;100.00
7407;BME280;3745;56.964;24.128;2023-05-25T05:23:36;101554.88;;;21.05;100.00
7407;BME280;3745;56.964;24.128;2023-05-25T05:26:02;101559.09;;;21.11;100.00
7407;BME280;3745;56.964;24.128;2023-05-25T05:28:29;101558.97;;;21.19;100.00
7407;BME280;3745;56.964;24.128;2023-05-25T05:30:56;101516.38;;;20.99;100.00
7407;BME280;3745;56.964;24.128;2023-05-25T05:33:21;101551.31;;;21.16;100.00
7407;BME280;3745;56.964;24.128;2023-05-25T05:35:49;101549.31;;;21.30;100.00
7407;BME280;3745;56.964;24.128;2023-05-25T05:38:15;101560.41;;;21.33;100.00
7407;BME280;3745;56.964;24.128;2023-05-25T05:40:40;101531.97;;;21.39;100.00
7407;BME280;3745;56.964;24.128;2023-05-25T05:43:09;101549.56;;;21.62;100.00
7407;BME280;3745;56.964;24.128;2023-05-25T05:45:35;101523.72;;;21.65;100.00
7407;BME280;3745;56.964;24.128;2023-05-25T05:48:00;101560.22;;;21.85;100.00
7407;BME280;3745;56.964;24.128;2023-05-25T05:50:26;101530.81;;;21.54;100.00
7407;BME280;3745;56.964;24.128;2023-05-25T05:52:51;101505.41;;;21.36;100.00
7407;BME280;3745;56.964;24.128;2023-05-25T05:55:18;101557.53;;;21.91;100.00
7407;BME280;3745;56.964;24.128;2023-05-25T05:57:45;101559.00;;;22.04;100.00
7407;BME280;3745;56.964;24.128;2023-05-25T06:00:11;101518.25;;;21.80;100.00
7407;BME280;3745;56.964;24.128;2023-05-25T06:02:37;101540.47;;;21.84;100.00
7407;BME280;3745;56.964;24.128;2023-05-25T06:05:03;101564.63;;;21.80;100.00
7407;BME280;3745;56.964;24.128;2023-05-25T06:07:29;101554.25;;;21.83;100.00
7407;BME280;3745;56.964;24.128;2023-05-25T06:09:55;101534.03;;;21.65;100.00
7407;BME280;3745;56.964;24.128;2023-05-25T06:12:21;101570.16;;;21.62;100.00
7407;BME280;3745;56.964;24.128;2023-05-25T06:14:46;101569.44;;;21.54;100.00
7407;BME280;3745;56.964;24.128;2023-05-25T06:17:14;101573.00;;;21.48;100.00
7407;BME280;3745;56.964;24.128;2023-05-25T06:19:41;101531.41;;;21.24;100.00
7407;BME280;3745;56.964;24.128;2023-05-25T06:22:06;101572.25;;;21.42;100.00
7407;BME280;3745;56.964;24.128;2023-05-25T06:24:32;101574.09;;;21.37;100.00
7407;BME280;3745;56.964;24.128;2023-05-25T06:26:58;101565.59;;;21.32;100.00
7407;BME280;3745;56.964;24.128;2023-05-25T06:29:23;101579.69;;;21.57;100.00
7407;BME280;3745;56.964;24.128;2023-05-25T06:31:49;101566.69;;;21.63;100.00
7407;BME280;3745;56.964;24.128;2023-05-25T06:34:14;101540.97;;;21.60;98.11
7407;BME280;3745;56.964;24.128;2023-05-25T06:36:40;101563.06;;;21.73;100.00
7407;BME280;3745;56.964;24.128;2023-05-25T06:39:06;101564.34;;;21.95;99.60
7407;BME280;3745;56.964;24.128;2023-05-25T06:41:31;101553.97;;;21.98;96.98
7407;BME280;3745;56.964;24.128;2023-05-25T06:43:57;101560.28;;;22.24;95.10
7407;BME280;3745;56.964;24.128;2023-05-25T06:46:22;101533.19;;;22.04;96.45
7407;BME280;3745;56.964;24.128;2023-05-25T06:48:48;101557.22;;;22.45;97.44
7407;BME280;3745;56.964;24.128;2023-05-25T06:51:13;101542.72;;;22.39;96.92
7407;BME280;3745;56.964;24.128;2023-05-25T06:53:39;101557.31;;;22.77;94.87
7407;BME280;3745;56.964;24.128;2023-05-25T06:56:05;101553.75;;;22.81;91.92
7407;BME280;3745;56.964;24.128;2023-05-25T06:58:30;101547.09;;;23.06;91.94
7407;BME280;3745;56.964;24.128;2023-05-25T07:00:56;101500.50;;;22.77;92.29
7407;BME280;3745;56.964;24.128;2023-05-25T07:03:22;101554.91;;;23.03;93.96
7407;BME280;3745;56.964;24.128;2023-05-25T07:05:48;101555.41;;;22.85;92.91
7407;BME280;3745;56.964;24.128;2023-05-25T07:08:13;101548.44;;;22.87;94.20
7407;BME280;3745;56.964;24.128;2023-05-25T07:10:39;101548.69;;;22.78;91.48
7407;BME280;3745;56.964;24.128;2023-05-25T07:13:04;101549.75;;;22.70;91.81
7407;BME280;3745;56.964;24.128;2023-05-25T07:15:30;101548.38;;;22.89;93.71
7407;BME280;3745;56.964;24.128;2023-05-25T07:17:55;101545.44;;;23.04;95.16
7407;BME280;3745;56.964;24.128;2023-05-25T07:20:22;101518.84;;;23.00;94.64
7407;BME280;3745;56.964;24.128;2023-05-25T07:22:48;101540.59;;;23.24;93.15
7407;BME280;3745;56.964;24.128;2023-05-25T07:25:13;101479.03;;;23.07;92.86
7407;BME280;3745;56.964;24.128;2023-05-25T07:27:39;101483.63;;;23.29;91.98
7407;BME280;3745;56.964;24.128;2023-05-25T07:30:07;101460.16;;;23.05;90.06
7407;BME280;3745;56.964;24.128;2023-05-25T07:32:33;101531.97;;;23.56;90.59
7407;BME280;3745;56.964;24.128;2023-05-25T07:34:58;101532.25;;;23.76;89.84
7407;BME280;3745;56.964;24.128;2023-05-25T07:37:24;101534.19;;;23.97;89.47
7407;BME280;3745;56.964;24.128;2023-05-25T07:39:50;101544.16;;;24.11;89.57
7407;BME280;3745;56.964;24.128;2023-05-25T07:42:16;101541.56;;;24.09;88.42
7407;BME280;3745;56.964;24.128;2023-05-25T07:44:46;101542.78;;;24.27;88.00
7407;BME280;3745;56.964;24.128;2023-05-25T07:47:11;101548.38;;;24.13;87.68
7407;BME280;3745;56.964;24.128;2023-05-25T07:49:37;101538.97;;;24.11;87.12
7407;BME280;3745;56.964;24.128;2023-05-25T07:52:02;101517.25;;;24.16;86.90
7407;BME280;3745;56.964;24.128;2023-05-25T07:54:30;101547.22;;;24.23;87.24
7407;BME280;3745;56.964;24.128;2023-05-25T07:56:56;101565.13;;;24.30;87.88
7407;BME280;3745;56.964;24.128;2023-05-25T07:59:21;101505.19;;;24.15;86.77
7407;BME280;3745;56.964;24.128;2023-05-25T08:01:48;101543.63;;;24.54;86.01
7407;BME280;3745;56.964;24.128;2023-05-25T08:04:14;101500.22;;;24.62;85.80
7407;BME280;3745;56.964;24.128;2023-05-25T08:06:39;101549.31;;;24.65;84.38
7407;BME280;3745;56.964;24.128;2023-05-25T08:09:06;101512.56;;;24.54;83.27
7407;BME280;3745;56.964;24.128;2023-05-25T08:11:32;101552.72;;;24.67;82.74
7407;BME280;3745;56.964;24.128;2023-05-25T08:13:58;101495.94;;;24.07;80.66
7407;BME280;3745;56.964;24.128;2023-05-25T08:16:24;101441.91;;;23.98;80.62
7407;BME280;3745;56.964;24.128;2023-05-25T08:18:50;101553.41;;;24.72;80.82
7407;BME280;3745;56.964;24.128;2023-05-25T08:21:19;101542.03;;;25.02;77.76
7407;BME280;3745;56.964;24.128;2023-05-25T08:23:45;101538.75;;;24.97;76.20
7407;BME280;3745;56.964;24.128;2023-05-25T08:26:11;101363.84;;;23.87;74.94
7407;BME280;3745;56.964;24.128;2023-05-25T08:28:37;101456.59;;;24.51;75.52
7407;BME280;3745;56.964;24.128;2023-05-25T08:31:03;101456.91;;;24.67;75.29
7407;BME280;3745;56.964;24.128;2023-05-25T08:33:29;101476.88;;;24.63;72.88
7407;BME280;3745;56.964;24.128;2023-05-25T08:35:58;101491.75;;;24.57;71.74
7407;BME280;3745;56.964;24.128;2023-05-25T08:38:41;101549.97;;;24.98;72.68
7407;BME280;3745;56.964;24.128;2023-05-25T08:41:08;101475.81;;;24.69;70.43
7407;BME280;3745;56.964;24.128;2023-05-25T08:43:36;101535.97;;;25.26;68.71
7407;BME280;3745;56.964;24.128;2023-05-25T08:46:04;101323.03;;;23.96;68.27
7407;BME280;3745;56.964;24.128;2023-05-25T08:48:32;101447.78;;;24.55;68.63
7407;BME280;3745;56.964;24.128;2023-05-25T08:51:10;101541.44;;;25.19;68.67
7407;BME280;3745;56.964;24.128;2023-05-25T08:53:39;101543.31;;;25.15;69.34
7407;BME280;3745;56.964;24.128;2023-05-25T08:56:10;101549.34;;;25.16;69.94
7407;BME280;3745;56.964;24.128;2023-05-25T08:58:49;101373.25;;;24.15;69.63
7407;BME280;3745;56.964;24.128;2023-05-25T09:01:20;101541.69;;;25.11;70.71
7407;BME280;3745;56.964;24.128;2023-05-25T09:03:46;101533.78;;;25.16;72.33
7407;BME280;3745;56.964;24.128;2023-05-25T09:06:15;101470.53;;;24.72;73.26
7407;BME280;3745;56.964;24.128;2023-05-25T09:08:43;101530.78;;;25.26;73.05
7407;BME280;3745;56.964;24.128;2023-05-25T09:11:10;101539.06;;;25.38;74.45
7407;BME280;3745;56.964;24.128;2023-05-25T09:13:36;101499.56;;;25.06;73.05
7407;BME280;3745;56.964;24.128;2023-05-25T09:16:02;101510.63;;;25.11;72.54
7407;BME280;3745;56.964;24.128;2023-05-25T09:18:27;101534.19;;;25.28;72.58
7407;BME280;3745;56.964;24.128;2023-05-25T09:20:53;101501.84;;;25.15;72.04
7407;BME280;3745;56.964;24.128;2023-05-25T09:23:19;101524.81;;;25.48;73.48
7407;BME280;3745;56.964;24.128;2023-05-25T09:25:46;101524.06;;;25.46;73.01
7407;BME280;3745;56.964;24.128;2023-05-25T09:28:17;101525.28;;;25.35;74.68
7407;BME280;3745;56.964;24.128;2023-05-25T09:30:43;101486.94;;;24.97;71.70
7407;BME280;3745;56.964;24.128;2023-05-25T09:33:12;101528.06;;;25.31;71.32
7407;BME280;3745;56.964;24.128;2023-05-25T09:35:39;101529.81;;;25.54;70.13
7407;BME280;3745;56.964;24.128;2023-05-25T09:38:05;101507.59;;;25.70;69.50
7407;BME280;3745;56.964;24.128;2023-05-25T09:40:32;101495.19;;;25.78;69.06
7407;BME280;3745;56.964;24.128;2023-05-25T09:42:59;101489.09;;;25.79;71.04
7407;BME280;3745;56.964;24.128;2023-05-25T09:45:26;101530.59;;;25.79;70.80
7407;BME280;3745;56.964;24.128;2023-05-25T09:47:56;101520.97;;;26.04;69.61
7407;BME280;3745;56.964;24.128;2023-05-25T09:50:22;101530.91;;;26.16;66.84
7407;BME280;3745;56.964;24.128;2023-05-25T09:52:48;101414.97;;;25.28;67.78
7407;BME280;3745;56.964;24.128;2023-05-25T09:55:14;101526.63;;;25.92;68.89
7407;BME280;3745;56.964;24.128;2023-05-25T09:57:40;101501.06;;;25.83;67.99
7407;BME280;3745;56.964;24.128;2023-05-25T10:00:08;101511.19;;;25.89;67.37
7407;BME280;3745;56.964;24.128;2023-05-25T10:02:35;101528.91;;;25.78;67.81
7407;BME280;3745;56.964;24.128;2023-05-25T10:05:01;101506.72;;;25.71;69.24
7407;BME280;3745;56.964;24.128;2023-05-25T10:07:27;101463.75;;;25.41;68.45
7407;BME280;3745;56.964;24.128;2023-05-25T10:09:53;101484.97;;;25.52;69.47
7407;BME280;3745;56.964;24.128;2023-05-25T10:12:23;101479.31;;;25.64;68.65
7407;BME280;3745;56.964;24.128;2023-05-25T10:14:50;101447.28;;;25.42;68.60
7407;BME280;3745;56.964;24.128;2023-05-25T10:17:20;101529.41;;;26.09;67.23
7407;BME280;3745;56.964;24.128;2023-05-25T10:19:59;101528.34;;;25.93;65.91
7407;BME280;3745;56.964;24.128;2023-05-25T10:22:35;101519.59;;;25.72;66.00
7407;BME280;3745;56.964;24.128;2023-05-25T10:25:24;101526.41;;;25.98;63.92
7407;BME280;3745;56.964;24.128;2023-05-25T10:28:01;101513.84;;;26.09;61.43
7407;BME280;3745;56.964;24.128;2023-05-25T10:30:26;101523.97;;;26.17;59.24
7407;BME280;3745;56.964;24.128;2023-05-25T10:32:54;101528.59;;;26.30;58.21
7407;BME280;3745;56.964;24.128;2023-05-25T10:35:23;101510.22;;;26.13;56.47
7407;BME280;3745;56.964;24.128;2023-05-25T10:37:52;101533.28;;;26.42;56.76
7407;BME280;3745;56.964;24.128;2023-05-25T10:40:20;101514.56;;;25.91;57.61
7407;BME280;3745;56.964;24.128;2023-05-25T10:42:47;101527.97;;;26.02;58.69
7407;BME280;3745;56.964;24.128;2023-05-25T10:45:13;101476.81;;;25.84;59.56
7407;BME280;3745;56.964;24.128;2023-05-25T10:47:40;101531.44;;;25.79;58.43
7407;BME280;3745;56.964;24.128;2023-05-25T10:50:20;101523.94;;;25.72;59.58
7407;BME280;3745;56.964;24.128;2023-05-25T10:53:00;101509.00;;;25.32;61.17
7407;BME280;3745;56.964;24.128;2023-05-25T10:55:27;101511.81;;;25.26;61.17
7407;BME280;3745;56.964;24.128;2023-05-25T10:58:13;101510.38;;;25.17;62.17
7407;BME280;3745;56.964;24.128;2023-05-25T11:00:40;101500.03;;;24.93;63.66
7407;BME280;3745;56.964;24.128;2023-05-25T11:03:06;101524.66;;;25.04;65.64
7407;BME280;3745;56.964;24.128;2023-05-25T11:05:37;101524.63;;;24.81;65.39
7407;BME280;3745;56.964;24.128;2023-05-25T11:08:07;101509.00;;;24.58;67.04
7407;BME280;3745;56.964;24.128;2023-05-25T11:13:36;101537.00;;;24.71;69.22
7407;BME280;3745;56.964;24.128;2023-05-25T11:16:30;101538.81;;;24.69;70.61
7407;BME280;3745;56.964;24.128;2023-05-25T11:19:02;101536.97;;;24.73;71.99
7407;BME280;3745;56.964;24.128;2023-05-25T11:23:59;101508.69;;;24.67;72.83
7407;BME280;3745;56.964;24.128;2023-05-25T11:26:32;101529.00;;;24.79;70.43
7407;BME280;3745;56.964;24.128;2023-05-25T11:28:59;101517.13;;;24.72;72.63
7407;BME280;3745;56.964;24.128;2023-05-25T11:31:33;101525.56;;;24.78;72.87
7407;BME280;3745;56.964;24.128;2023-05-25T11:34:03;101492.31;;;24.66;72.75
7407;BME280;3745;56.964;24.128;2023-05-25T11:36:34;101511.69;;;24.81;72.52
7407;BME280;3745;56.964;24.128;2023-05-25T11:39:01;101471.38;;;24.48;72.83
7407;BME280;3745;56.964;24.128;2023-05-25T11:41:28;101499.78;;;24.74;73.85
7407;BME280;3745;56.964;24.128;2023-05-25T11:43:54;101513.56;;;24.76;74.39
7407;BME280;3745;56.964;24.128;2023-05-25T11:46:21;101514.75;;;24.92;74.58
7407;BME280;3745;56.964;24.128;2023-05-25T11:48:51;101433.22;;;24.53;74.98
7407;BME280;3745;56.964;24.128;2023-05-25T11:51:19;101520.97;;;25.11;75.99
7407;BME280;3745;56.964;24.128;2023-05-25T11:53:45;101476.94;;;25.11;76.33
7407;BME280;3745;56.964;24.128;2023-05-25T11:56:14;101509.50;;;25.42;74.72
7407;BME280;3745;56.964;24.128;2023-05-25T11:58:40;101489.38;;;25.48;74.42
7407;BME280;3745;56.964;24.128;2023-05-25T12:01:23;101503.00;;;25.55;71.99
7407;BME280;3745;56.964;24.128;2023-05-25T12:03:52;101512.47;;;25.56;70.98
7407;BME280;3745;56.964;24.128;2023-05-25T12:06:38;101496.09;;;25.30;66.31
7407;BME280;3745;56.964;24.128;2023-05-25T12:09:10;101504.75;;;25.29;67.08
7407;BME280;3745;56.964;24.128;2023-05-25T12:11:37;101517.59;;;25.09;69.47
7407;BME280;3745;56.964;24.128;2023-05-25T12:14:04;101499.94;;;24.96;69.58
7407;BME280;3745;56.964;24.128;2023-05-25T12:16:31;101476.91;;;24.88;70.00
7407;BME280;3745;56.964;24.128;2023-05-25T12:18:59;101511.81;;;25.01;70.13
7407;BME280;3745;56.964;24.128;2023-05-25T12:21:26;101500.69;;;24.99;70.81
7407;BME280;3745;56.964;24.128;2023-05-25T12:23:53;101515.69;;;25.14;71.08
7407;BME280;3745;56.964;24.128;2023-05-25T12:26:18;101510.94;;;25.02;70.57
7407;BME280;3745;56.964;24.128;2023-05-25T12:29:05;101489.47;;;24.99;71.33
7407;BME280;3745;56.964;24.128;2023-05-25T12:31:35;101475.09;;;24.90;69.92
7407;BME280;3745;56.964;24.128;2023-05-25T12:34:18;101512.63;;;25.03;70.01
7407;BME280;3745;56.964;24.128;2023-05-25T12:36:55;101509.56;;;24.92;70.20
7407;BME280;3745;56.964;24.128;2023-05-25T12:39:33;101499.69;;;24.77;71.26
7407;BME280;3745;56.964;24.128;2023-05-25T12:42:03;101472.75;;;24.58;71.30
7407;BME280;3745;56.964;24.128;2023-05-25T12:44:33;101499.69;;;24.77;71.83
7407;BME280;3745;56.964;24.128;2023-05-25T12:47:18;101507.88;;;24.91;72.43
7407;BME280;3745;56.964;24.128;2023-05-25T12:49:51;101504.97;;;24.74;73.44
7407;BME280;3745;56.964;24.128;2023-05-25T12:52:45;101504.84;;;24.78;73.59
7407;BME280;3745;56.964;24.128;2023-05-25T12:55:30;101505.19;;;24.68;74.30
7407;BME280;3745;56.964;24.128;2023-05-25T12:58:06;101501.50;;;24.75;73.47
7407;BME280;3745;56.964;24.128;2023-05-25T13:00:33;101503.25;;;24.74;74.65
7407;BME280;3745;56.964;24.128;2023-05-25T13:02:58;101503.03;;;24.82;75.24
7407;BME280;3745;56.964;24.128;2023-05-25T13:05:27;101500.72;;;24.73;76.91